Time;durP1;ratioP1;P1;durP2;ratioP2;P2;SDS_P1;SDS_P2;PMS_P1;PMS_P2;Temp;Humidity;BMP_temperature;BMP_pressure;BME280_temperature;BME280_humidity;BME280_pressure;Samples;Min_cycle;Max_cycle;Signal;HPM_P1;HPM_P2
2022/11/04 00:01:50;;;;;;;1.52;1.05;;;13.00;84.40;;;;;;5094161;28;20026;-72
2022/11/04 00:04:18;;;;;;;3.22;1.02;;;13.10;84.30;;;;;;5088328;28;20035;-73
2022/11/04 00:06:44;;;;;;;1.63;1.25;;;13.10;84.40;;;;;;5085621;28;20028;-73
2022/11/04 00:09:14;;;;;;;0.93;0.90;;;13.10;84.30;;;;;;5087779;28;20036;-73
2022/11/04 00:14:24;;;;;;;1.02;1.00;;;13.10;84.40;;;;;;5087891;28;20031;-73
2022/11/04 00:30:32;;;;;;;2.13;1.77;;;13.10;84.50;;;;;;5087001;28;20120;-77
2022/11/04 00:35:50;;;;;;;3.60;2.45;;;13.10;84.60;;;;;;5082371;28;20093;-77
2022/11/04 00:38:16;;;;;;;2.28;1.70;;;13.10;84.70;;;;;;5087030;28;20040;-77
2022/11/04 00:40:42;;;;;;;2.80;2.05;;;13.10;84.80;;;;;;5088366;28;20495;-76
2022/11/04 00:43:08;;;;;;;2.50;1.90;;;13.00;84.70;;;;;;5084942;28;20035;-74
2022/11/04 00:45:33;;;;;;;4.15;2.80;;;13.10;84.70;;;;;;5087972;28;20387;-73
2022/11/04 00:47:59;;;;;;;5.55;2.95;;;13.10;84.60;;;;;;5086459;28;20028;-77
2022/11/04 00:50:24;;;;;;;5.28;3.60;;;13.10;84.70;;;;;;5105063;28;20031;-78
2022/11/04 00:52:50;;;;;;;4.05;2.45;;;13.00;84.60;;;;;;5082725;28;20454;-72
2022/11/04 00:55:16;;;;;;;11.10;2.75;;;13.00;84.80;;;;;;5087454;28;20036;-74
2022/11/04 00:57:41;;;;;;;3.25;2.53;;;12.90;84.90;;;;;;5090820;28;20555;-74
2022/11/04 01:00:08;;;;;;;2.25;2.05;;;12.90;84.80;;;;;;5091180;28;20099;-74
2022/11/04 01:02:33;;;;;;;3.72;2.08;;;12.90;84.70;;;;;;5088413;28;20028;-74
2022/11/04 01:04:59;;;;;;;2.13;1.90;;;12.80;84.60;;;;;;5093141;28;20027;-74
2022/11/04 01:07:25;;;;;;;2.65;1.52;;;12.80;84.20;;;;;;5091108;28;20478;-76
2022/11/04 01:09:50;;;;;;;2.08;1.30;;;12.70;84.10;;;;;;5091630;28;20396;-77
2022/11/04 01:12:16;;;;;;;1.73;1.50;;;12.60;84.10;;;;;;5093044;28;20046;-77
2022/11/04 01:14:42;;;;;;;1.50;1.40;;;12.60;83.60;;;;;;5090111;28;20078;-77
2022/11/04 01:17:07;;;;;;;3.50;1.00;;;12.60;83.30;;;;;;5090958;28;20040;-77
2022/11/04 01:19:33;;;;;;;1.23;0.80;;;12.50;83.30;;;;;;5090519;28;20043;-77
2022/11/04 01:21:59;;;;;;;1.25;1.00;;;12.50;83.20;;;;;;5090883;28;20032;-77
2022/11/04 01:24:25;;;;;;;0.40;0.40;;;12.50;82.90;;;;;;5092729;28;20417;-76
2022/11/04 01:26:50;;;;;;;0.93;0.77;;;12.40;83.00;;;;;;5084859;28;20032;-74
2022/11/04 01:29:16;;;;;;;0.73;0.50;;;12.50;82.70;;;;;;5085312;28;20131;-74
2022/11/04 01:31:42;;;;;;;0.40;0.40;;;12.40;82.60;;;;;;5091122;28;20531;-77
2022/11/04 01:34:08;;;;;;;0.82;0.60;;;12.40;82.50;;;;;;5074099;28;20506;-77
2022/11/04 01:36:33;;;;;;;0.50;0.50;;;12.40;82.50;;;;;;5087597;28;20422;-77
2022/11/04 01:38:59;;;;;;;0.55;0.55;;;12.30;82.40;;;;;;5074172;28;20028;-77
2022/11/04 01:41:30;;;;;;;1.02;0.45;;;12.40;82.50;;;;;;5091337;28;20483;-76
2022/11/04 01:44:02;;;;;;;1.57;0.60;;;12.30;81.80;;;;;;5091504;28;20061;-77
2022/11/04 01:46:41;;;;;;;0.68;0.68;;;12.30;81.90;;;;;;5088495;28;20024;-77
2022/11/04 01:49:29;;;;;;;0.80;0.80;;;12.20;81.90;;;;;;5091578;28;20119;-74
2022/11/04 01:52:04;;;;;;;1.25;0.50;;;12.20;82.00;;;;;;5097661;28;20024;-78
2022/11/04 01:54:30;;;;;;;0.70;0.47;;;12.10;82.20;;;;;;5091762;28;20081;-76
2022/11/04 01:56:59;;;;;;;0.45;0.45;;;12.20;82.20;;;;;;5079889;28;20024;-77
2022/11/04 01:59:30;;;;;;;0.75;0.73;;;12.20;82.20;;;;;;5086033;28;20024;-77
2022/11/04 02:01:56;;;;;;;1.25;0.70;;;12.20;82.20;;;;;;5090503;28;20047;-77
2022/11/04 02:04:25;;;;;;;0.88;0.43;;;12.20;82.20;;;;;;5091733;28;20462;-78
2022/11/04 02:06:54;;;;;;;0.85;0.85;;;12.20;82.10;;;;;;5088781;28;20036;-77
2022/11/04 02:09:21;;;;;;;1.30;0.80;;;12.30;82.10;;;;;;5090796;28;20058;-74
2022/11/04 02:14:33;;;;;;;1.15;0.93;;;12.30;82.10;;;;;;5092313;28;20406;-78
2022/11/04 02:17:47;;;;;;;3.50;1.75;;;12.30;82.20;;;;;;5087011;28;20028;-79
2022/11/04 02:20:12;;;;;;;1.95;1.80;;;12.40;82.20;;;;;;5091447;28;20368;-78
2022/11/04 02:23:19;;;;;;;1.70;1.38;;;12.30;82.30;;;;;;5084111;28;20028;-79
2022/11/04 02:26:00;;;;;;;5.60;3.28;;;12.30;82.20;;;;;;5054257;28;20043;-79
2022/11/04 02:28:44;;;;;;;6.03;3.30;;;12.30;82.50;;;;;;5075412;28;20043;-75
2022/11/04 02:31:13;;;;;;;8.25;3.63;;;12.30;82.70;;;;;;5082688;28;20028;-74
2022/11/04 02:34:04;;;;;;;5.78;3.83;;;12.20;82.90;;;;;;5090802;28;20399;-75
2022/11/04 02:36:48;;;;;;;6.30;3.60;;;12.20;83.00;;;;;;5089211;28;20109;-74
2022/11/04 02:39:32;;;;;;;3.58;2.70;;;12.20;83.30;;;;;;5080272;28;20560;-75
2022/11/04 02:42:36;;;;;;;5.43;3.67;;;12.20;83.30;;;;;;5105214;28;20305;-74
2022/11/04 02:45:36;;;;;;;6.03;3.97;;;12.20;83.20;;;;;;5092882;28;20028;-74
2022/11/04 02:48:10;;;;;;;6.32;4.35;;;12.20;83.30;;;;;;5086471;28;20055;-74
2022/11/04 02:51:07;;;;;;;6.40;4.75;;;12.20;83.60;;;;;;5093820;28;20111;-74
2022/11/04 02:53:40;;;;;;;8.63;5.05;;;12.20;83.60;;;;;;5080965;28;20040;-74
2022/11/04 02:56:08;;;;;;;6.50;4.53;;;12.20;83.70;;;;;;5091146;28;20060;-75
2022/11/04 02:58:44;;;;;;;5.65;3.97;;;12.20;83.80;;;;;;5092281;28;20028;-74
2022/11/04 03:01:15;;;;;;;7.47;4.60;;;12.20;83.60;;;;;;5090703;28;20087;-75
2022/11/04 03:03:47;;;;;;;6.50;4.30;;;12.20;83.50;;;;;;5087542;28;20103;-74
2022/11/04 03:06:16;;;;;;;4.67;3.50;;;12.20;83.40;;;;;;5093402;28;20020;-74
2022/11/04 03:08:46;;;;;;;8.30;5.43;;;12.30;83.40;;;;;;5094465;28;20277;-75
2022/11/04 03:11:22;;;;;;;6.88;5.03;;;12.30;83.30;;;;;;5091982;28;20399;-74
2022/11/04 03:14:06;;;;;;;7.72;4.97;;;12.30;83.40;;;;;;5086028;28;20112;-74
2022/11/04 03:16:45;;;;;;;13.77;6.25;;;12.20;83.40;;;;;;5090368;28;20028;-74
2022/11/04 03:19:38;;;;;;;6.70;4.72;;;12.20;83.50;;;;;;5087499;28;20036;-74
2022/11/04 03:22:07;;;;;;;13.15;5.97;;;12.20;83.60;;;;;;5087372;28;20372;-79
2022/11/04 03:24:33;;;;;;;8.93;5.22;;;12.10;83.80;;;;;;5091277;28;20095;-79
2022/11/04 03:27:15;;;;;;;7.55;5.25;;;12.10;84.00;;;;;;5092486;28;20127;-80
2022/11/04 03:30:06;;;;;;;7.47;4.88;;;12.10;84.00;;;;;;5088800;28;20435;-74
2022/11/04 03:32:38;;;;;;;6.47;4.50;;;12.10;83.80;;;;;;5078181;28;20396;-74
2022/11/04 03:35:05;;;;;;;7.40;4.75;;;12.20;83.80;;;;;;5085366;28;20024;-74
2022/11/04 03:37:31;;;;;;;7.25;4.85;;;12.20;83.80;;;;;;5079627;28;20036;-74
2022/11/04 03:39:57;;;;;;;13.95;5.88;;;12.20;83.70;;;;;;5079738;28;20032;-74
2022/11/04 03:42:24;;;;;;;7.97;6.15;;;12.30;84.20;;;;;;5092881;28;20020;-74
2022/11/04 03:44:52;;;;;;;8.00;5.95;;;12.20;83.60;;;;;;5085704;28;20020;-74
2022/11/04 03:47:20;;;;;;;7.63;4.72;;;12.20;83.80;;;;;;5088480;28;20554;-79
2022/11/04 03:49:53;;;;;;;10.30;4.88;;;12.10;84.00;;;;;;5095235;28;20016;-79
2022/11/04 03:52:19;;;;;;;8.55;4.57;;;12.10;84.00;;;;;;5104837;28;20034;-79
2022/11/04 03:54:46;;;;;;;6.22;4.80;;;12.20;83.90;;;;;;5099804;28;20031;-80
2022/11/04 03:57:30;;;;;;;5.97;3.90;;;12.20;83.80;;;;;;5089618;28;20029;-79
2022/11/04 04:00:21;;;;;;;7.25;5.07;;;12.30;83.60;;;;;;5096460;28;20024;-79
2022/11/04 04:03:05;;;;;;;4.78;3.42;;;12.30;83.50;;;;;;5089889;28;20028;-80
2022/11/04 04:05:43;;;;;;;6.43;4.32;;;12.20;83.30;;;;;;5083712;28;20047;-79
2022/11/04 04:08:18;;;;;;;9.60;4.70;;;12.20;83.40;;;;;;5085538;28;20035;-74
2022/11/04 04:11:09;;;;;;;5.57;4.03;;;12.20;83.40;;;;;;5097928;28;20023;-74
2022/11/04 04:14:08;;;;;;;6.88;4.00;;;12.20;83.30;;;;;;5096336;28;20019;-74
2022/11/04 04:16:40;;;;;;;10.38;5.10;;;12.20;83.20;;;;;;5097604;28;20042;-74
2022/11/04 04:19:13;;;;;;;11.20;3.92;;;12.10;83.10;;;;;;5092079;28;20534;-75
2022/11/04 04:21:51;;;;;;;6.70;4.10;;;12.10;83.30;;;;;;5091096;28;20077;-74
2022/11/04 04:29:51;;;;;;;8.63;4.07;;;12.00;83.30;;;;;;5088509;28;20185;-74
2022/11/04 04:32:19;;;;;;;7.32;4.43;;;12.00;83.30;;;;;;5081042;28;20031;-80
2022/11/04 04:34:44;;;;;;;6.22;3.78;;;12.00;83.30;;;;;;5091748;28;20043;-79
2022/11/04 04:37:29;;;;;;;5.40;3.17;;;12.10;83.80;;;;;;5089492;28;20067;-80
2022/11/04 04:45:39;;;;;;;3.47;2.50;;;12.00;82.80;;;;;;5086415;28;20075;-80
2022/11/04 04:48:05;;;;;;;3.25;2.30;;;12.10;82.90;;;;;;5087245;28;20107;-80
2022/11/04 04:50:36;;;;;;;3.45;2.30;;;12.00;82.90;;;;;;5092947;28;20028;-79
2022/11/04 04:53:05;;;;;;;3.38;1.90;;;12.00;83.40;;;;;;5088422;28;20024;-74
2022/11/04 04:55:31;;;;;;;2.42;2.00;;;12.00;82.80;;;;;;5085283;28;20032;-74
2022/11/04 04:57:57;;;;;;;4.00;2.25;;;12.00;82.60;;;;;;5084629;28;20040;-74
2022/11/04 05:00:23;;;;;;;4.35;2.30;;;12.00;82.60;;;;;;5095316;28;20019;-74
2022/11/04 05:02:49;;;;;;;2.20;1.98;;;12.00;82.50;;;;;;5069699;28;20476;-74
2022/11/04 05:05:15;;;;;;;2.92;2.13;;;12.00;82.60;;;;;;5089369;28;20020;-74
2022/11/04 05:07:41;;;;;;;4.47;2.10;;;12.00;82.60;;;;;;5088147;28;20044;-74
2022/11/04 05:10:09;;;;;;;3.83;2.20;;;12.00;82.60;;;;;;5087928;28;20043;-74
2022/11/04 05:15:21;;;;;;;11.18;2.17;;;12.00;82.40;;;;;;5091096;28;20035;-80
2022/11/04 05:17:47;;;;;;;3.67;1.77;;;11.90;82.40;;;;;;5089348;28;20044;-80
2022/11/04 05:20:13;;;;;;;2.88;1.92;;;11.90;82.30;;;;;;5070906;28;20020;-80
2022/11/04 05:22:39;;;;;;;4.35;2.25;;;11.80;82.40;;;;;;5089956;28;20510;-80
2022/11/04 05:25:05;;;;;;;2.53;1.63;;;11.80;82.40;;;;;;5082136;28;20047;-74
2022/11/04 05:27:30;;;;;;;4.00;2.17;;;11.70;82.40;;;;;;5079663;28;20036;-74
2022/11/04 05:29:56;;;;;;;2.78;1.67;;;11.70;82.40;;;;;;5087002;28;20430;-74
2022/11/04 05:32:22;;;;;;;6.03;2.30;;;11.70;82.40;;;;;;5088533;28;20035;-74
2022/11/04 05:34:47;;;;;;;2.20;1.65;;;11.70;82.30;;;;;;5081099;28;20047;-74
2022/11/04 05:37:13;;;;;;;4.65;1.88;;;11.70;82.40;;;;;;5092071;28;20127;-74
2022/11/04 05:39:39;;;;;;;2.90;1.95;;;11.60;82.30;;;;;;5086345;28;20055;-73
2022/11/04 05:42:04;;;;;;;5.53;1.85;;;11.60;82.30;;;;;;5078357;28;20073;-73
2022/11/04 05:44:30;;;;;;;1.88;1.67;;;11.60;82.30;;;;;;5086840;28;20047;-73
2022/11/04 05:46:55;;;;;;;3.28;1.75;;;11.60;82.30;;;;;;5088816;28;20032;-73
2022/11/04 05:49:21;;;;;;;3.53;2.15;;;11.60;82.40;;;;;;5083047;28;20486;-73
2022/11/04 05:51:47;;;;;;;4.32;1.88;;;11.60;82.30;;;;;;5083719;28;20071;-73
2022/11/04 05:54:12;;;;;;;2.58;1.88;;;11.60;82.30;;;;;;5087259;28;20074;-73
2022/11/04 05:56:38;;;;;;;1.52;1.17;;;11.60;82.50;;;;;;5079052;28;20035;-73
2022/11/04 05:59:04;;;;;;;1.98;1.42;;;11.60;82.50;;;;;;5060029;28;20479;-73
2022/11/04 06:01:29;;;;;;;1.77;1.55;;;11.60;82.50;;;;;;5087835;28;20043;-73
2022/11/04 06:03:56;;;;;;;3.13;1.50;;;11.60;82.40;;;;;;5084975;28;20067;-73
2022/11/04 06:06:23;;;;;;;1.60;1.40;;;11.50;82.30;;;;;;5081398;28;20055;-73
2022/11/04 06:08:49;;;;;;;1.75;1.35;;;11.50;82.40;;;;;;5085748;28;20037;-73
2022/11/04 06:11:16;;;;;;;2.03;1.27;;;11.50;82.40;;;;;;5088943;28;20098;-73
2022/11/04 06:13:41;;;;;;;2.15;1.48;;;11.40;82.50;;;;;;5100470;28;20016;-73
2022/11/04 06:16:07;;;;;;;3.42;1.40;;;11.40;82.60;;;;;;5089685;28;20040;-79
2022/11/04 06:18:33;;;;;;;2.80;2.20;;;11.40;82.70;;;;;;5087075;28;20036;-79
2022/11/04 06:21:12;;;;;;;3.17;1.30;;;11.40;82.70;;;;;;5085588;28;20097;-79
2022/11/04 06:23:38;;;;;;;3.92;1.98;;;11.40;82.50;;;;;;5093426;28;20198;-79
2022/11/04 06:26:04;;;;;;;1.65;1.20;;;11.30;82.60;;;;;;5089745;28;20027;-80
2022/11/04 06:28:30;;;;;;;3.30;1.90;;;11.30;82.70;;;;;;5090689;28;20036;-80
2022/11/04 06:30:58;;;;;;;4.72;1.52;;;11.40;82.60;;;;;;5094942;28;20449;-73
2022/11/04 06:33:24;;;;;;;3.33;1.42;;;11.40;82.70;;;;;;5091737;28;20028;-73
2022/11/04 06:35:49;;;;;;;1.83;1.55;;;11.40;82.70;;;;;;5090050;28;20028;-73
2022/11/04 06:38:15;;;;;;;2.63;1.52;;;11.30;82.70;;;;;;5090372;28;20738;-72
2022/11/04 06:40:41;;;;;;;1.65;1.02;;;11.40;82.70;;;;;;5071908;28;20070;-72
2022/11/04 06:43:06;;;;;;;1.67;1.10;;;11.40;82.60;;;;;;5092418;28;20103;-72
2022/11/04 06:45:32;;;;;;;5.55;1.42;;;11.40;82.50;;;;;;5073256;28;20024;-72
2022/11/04 06:47:58;;;;;;;1.83;1.33;;;11.40;82.40;;;;;;5090513;28;20036;-72
2022/11/04 06:50:23;;;;;;;2.35;1.00;;;11.40;82.40;;;;;;5099590;28;20039;-72
2022/11/04 06:52:49;;;;;;;3.10;1.85;;;11.30;82.50;;;;;;5096674;28;20392;-72
2022/11/04 06:55:14;;;;;;;1.73;1.25;;;11.40;82.50;;;;;;5082863;28;20055;-72
2022/11/04 06:57:40;;;;;;;2.80;0.98;;;11.40;82.40;;;;;;5087252;28;20475;-72
2022/11/04 07:00:06;;;;;;;2.00;1.27;;;11.40;82.40;;;;;;5091236;28;20032;-72
2022/11/04 07:02:32;;;;;;;1.92;1.27;;;11.40;82.30;;;;;;5090843;28;20032;-72
2022/11/04 07:04:58;;;;;;;1.45;1.27;;;11.40;82.30;;;;;;5099268;28;20090;-73
2022/11/04 07:07:23;;;;;;;2.13;1.30;;;11.40;82.30;;;;;;5090113;28;20503;-72
2022/11/04 07:09:49;;;;;;;2.22;1.63;;;11.40;82.30;;;;;;5084380;28;20052;-73
2022/11/04 07:12:15;;;;;;;2.88;1.73;;;11.40;82.30;;;;;;5093419;28;20498;-73
2022/11/04 07:14:41;;;;;;;1.20;0.80;;;11.50;82.40;;;;;;5090009;28;20084;-72
2022/11/04 07:17:07;;;;;;;1.35;0.80;;;11.50;82.30;;;;;;5091289;28;20115;-79
2022/11/04 07:19:33;;;;;;;1.60;1.38;;;11.50;82.20;;;;;;5086802;28;20364;-79
2022/11/04 07:21:58;;;;;;;1.40;1.30;;;11.50;82.00;;;;;;5092318;28;20028;-79
2022/11/04 07:24:24;;;;;;;1.65;1.40;;;11.50;81.90;;;;;;5086849;28;20039;-79
2022/11/04 07:26:49;;;;;;;1.83;1.30;;;11.40;81.90;;;;;;5068638;28;20028;-79
2022/11/04 07:29:15;;;;;;;2.75;1.45;;;11.40;82.50;;;;;;5084340;28;20119;-79
2022/11/04 07:31:42;;;;;;;1.48;1.38;;;11.40;81.90;;;;;;5096397;28;20071;-73
2022/11/04 07:34:08;;;;;;;2.50;1.15;;;11.40;81.90;;;;;;5087233;28;20028;-73
2022/11/04 07:36:33;;;;;;;1.10;1.00;;;11.40;81.80;;;;;;5084039;28;20066;-72
2022/11/04 07:39:00;;;;;;;3.63;1.17;;;11.30;81.70;;;;;;5087743;28;20115;-73
2022/11/04 07:41:26;;;;;;;1.65;1.02;;;11.40;81.70;;;;;;5089978;28;20445;-73
2022/11/04 07:43:53;;;;;;;1.95;1.25;;;11.40;81.70;;;;;;5075188;28;20052;-73
2022/11/04 07:46:20;;;;;;;1.95;1.38;;;11.40;81.60;;;;;;5073581;28;20028;-73
2022/11/04 07:48:46;;;;;;;1.63;1.38;;;11.40;81.60;;;;;;5096840;28;20024;-73
2022/11/04 07:51:15;;;;;;;0.77;0.77;;;11.40;81.50;;;;;;5100584;28;20024;-73
2022/11/04 07:53:41;;;;;;;4.55;1.63;;;11.40;81.50;;;;;;5089234;28;20052;-79
2022/11/04 07:56:10;;;;;;;1.73;0.73;;;11.50;81.50;;;;;;5079723;28;20498;-79
2022/11/04 07:58:36;;;;;;;1.20;1.08;;;11.50;81.40;;;;;;5086922;28;20490;-80
2022/11/04 08:01:09;;;;;;;1.25;1.15;;;11.50;81.50;;;;;;5092575;28;20059;-79
2022/11/04 08:03:36;;;;;;;3.13;1.65;;;11.50;81.50;;;;;;5090547;28;20067;-80
2022/11/04 08:06:03;;;;;;;1.65;1.17;;;11.50;81.50;;;;;;5090343;28;20165;-80
2022/11/04 08:08:29;;;;;;;2.10;1.02;;;11.60;81.60;;;;;;5089855;28;20055;-81
2022/11/04 08:11:00;;;;;;;1.90;1.40;;;11.60;81.60;;;;;;5068003;28;20365;-81
2022/11/04 08:13:30;;;;;;;2.17;1.25;;;11.70;81.60;;;;;;5091267;28;20077;-81
2022/11/04 08:16:00;;;;;;;2.08;1.00;;;11.70;81.50;;;;;;5087246;28;20115;-81
2022/11/04 08:18:26;;;;;;;3.47;1.67;;;11.80;81.50;;;;;;5096116;28;20042;-81
2022/11/04 08:20:52;;;;;;;1.95;0.95;;;11.90;81.30;;;;;;5089685;28;20028;-81
2022/11/04 08:23:18;;;;;;;1.42;1.30;;;12.00;81.30;;;;;;5078091;28;20520;-81
2022/11/04 08:25:45;;;;;;;4.53;1.63;;;12.00;81.10;;;;;;5086768;28;20024;-81
2022/11/04 08:28:12;;;;;;;2.22;1.58;;;12.00;81.10;;;;;;5088253;28;20028;-81
2022/11/04 08:30:38;;;;;;;2.75;1.10;;;12.10;81.10;;;;;;5088836;28;20035;-81
2022/11/04 08:33:04;;;;;;;2.25;0.85;;;12.20;81.10;;;;;;5083963;28;20119;-80
2022/11/04 08:35:30;;;;;;;2.70;1.33;;;12.30;80.80;;;;;;5090799;28;20360;-79
2022/11/04 08:37:56;;;;;;;1.17;1.00;;;12.40;80.60;;;;;;5078455;28;20036;-79
2022/11/04 08:40:23;;;;;;;2.53;1.30;;;12.40;80.50;;;;;;5093859;28;20378;-79
2022/11/04 08:42:49;;;;;;;2.53;1.10;;;12.50;80.60;;;;;;5090546;28;20017;-78
2022/11/04 08:45:14;;;;;;;2.72;1.50;;;12.60;80.40;;;;;;5074420;28;20031;-78
2022/11/04 08:47:40;;;;;;;1.38;0.95;;;12.70;80.30;;;;;;5080975;28;20482;-74
2022/11/04 08:50:06;;;;;;;2.72;0.88;;;12.70;80.30;;;;;;5090488;28;20044;-73
2022/11/04 08:52:33;;;;;;;2.28;0.98;;;12.80;80.20;;;;;;5070849;28;20063;-72
2022/11/04 08:54:58;;;;;;;3.10;1.55;;;12.80;80.10;;;;;;5081607;28;20036;-73
2022/11/04 08:57:24;;;;;;;2.30;1.48;;;12.80;80.00;;;;;;5086935;28;20119;-72
2022/11/04 08:59:50;;;;;;;2.15;1.25;;;12.80;80.00;;;;;;5084667;28;20094;-72
2022/11/04 09:02:16;;;;;;;4.30;1.85;;;12.80;79.90;;;;;;5085684;28;20028;-72
2022/11/04 09:04:41;;;;;;;2.60;1.60;;;12.80;79.90;;;;;;5087053;28;20028;-72
2022/11/04 09:07:07;;;;;;;3.35;1.83;;;12.70;79.60;;;;;;5080070;28;20029;-77
2022/11/04 09:09:33;;;;;;;2.70;1.45;;;12.70;79.60;;;;;;5087986;28;20056;-79
2022/11/04 09:11:58;;;;;;;1.88;1.35;;;12.70;79.70;;;;;;5083265;28;20032;-79
2022/11/04 09:14:24;;;;;;;1.13;0.95;;;12.70;79.70;;;;;;5080261;28;20089;-76
2022/11/04 09:16:50;;;;;;;4.88;1.40;;;12.70;79.60;;;;;;5089778;28;20749;-76
2022/11/04 09:19:16;;;;;;;2.33;1.02;;;12.70;79.60;;;;;;5093423;28;20380;-76
2022/11/04 09:21:41;;;;;;;2.00;1.02;;;12.70;79.60;;;;;;5095240;28;20103;-76
2022/11/04 09:24:07;;;;;;;1.67;1.27;;;12.70;79.70;;;;;;5092492;28;20106;-76
2022/11/04 09:26:34;;;;;;;3.10;1.65;;;12.70;79.70;;;;;;5073196;28;20506;-72
2022/11/04 09:29:00;;;;;;;3.67;1.38;;;12.60;79.60;;;;;;5091943;28;20024;-73
2022/11/04 09:31:28;;;;;;;1.95;1.45;;;12.60;79.80;;;;;;5096495;28;20039;-74
2022/11/04 09:33:54;;;;;;;2.50;1.23;;;12.70;79.90;;;;;;5092996;28;20470;-74
2022/11/04 09:36:20;;;;;;;2.75;1.33;;;12.60;79.80;;;;;;5089128;28;20051;-72
2022/11/04 09:38:46;;;;;;;4.80;1.65;;;12.60;79.80;;;;;;5089993;28;20040;-74
2022/11/04 09:41:41;;;;;;;3.42;1.80;;;12.60;79.80;;;;;;5080617;28;20032;-72
2022/11/04 09:44:15;;;;;;;6.57;2.08;;;12.60;79.70;;;;;;5090098;28;20069;-73
2022/11/04 09:46:42;;;;;;;5.82;2.17;;;12.50;79.90;;;;;;5087766;28;20036;-79
2022/11/04 09:49:11;;;;;;;3.50;1.92;;;12.50;80.00;;;;;;5085445;28;20032;-77
2022/11/04 09:51:40;;;;;;;4.60;2.00;;;12.60;80.00;;;;;;5096098;28;20024;-77
2022/11/04 09:54:20;;;;;;;6.38;2.22;;;12.70;79.90;;;;;;5089380;28;20391;-77
2022/11/04 09:56:50;;;;;;;2.30;1.67;;;12.80;79.80;;;;;;5091358;28;20094;-77
2022/11/04 09:59:23;;;;;;;2.13;1.88;;;12.80;79.70;;;;;;5091385;28;20031;-77
2022/11/04 10:01:48;;;;;;;5.40;2.10;;;12.80;79.50;;;;;;5077589;28;20063;-73
2022/11/04 10:04:41;;;;;;;3.28;1.98;;;12.80;79.60;;;;;;5086163;28;20115;-73
2022/11/04 10:07:32;;;;;;;3.95;2.58;;;12.80;79.60;;;;;;5082959;28;20086;-73
2022/11/04 10:10:31;;;;;;;6.13;2.67;;;12.80;79.60;;;;;;5096101;28;20138;-73
2022/11/04 10:13:18;;;;;;;1.85;1.50;;;12.80;79.60;;;;;;5091587;28;20047;-73
2022/11/04 10:16:15;;;;;;;6.85;2.85;;;12.70;79.70;;;;;;5085082;28;20150;-76
2022/11/04 10:18:49;;;;;;;5.55;2.80;;;12.70;79.80;;;;;;5080859;28;20024;-77
2022/11/04 10:21:44;;;;;;;3.25;1.80;;;12.70;79.80;;;;;;5092558;28;20127;-77
2022/11/04 10:24:32;;;;;;;3.03;1.70;;;12.70;79.70;;;;;;5109239;28;20024;-78
2022/11/04 10:27:03;;;;;;;2.85;2.10;;;12.80;79.70;;;;;;5094425;28;20471;-78
2022/11/04 10:29:37;;;;;;;4.33;2.50;;;12.80;79.60;;;;;;5094097;28;20053;-77
2022/11/04 10:32:13;;;;;;;4.13;2.60;;;12.90;79.40;;;;;;5110702;28;20032;-73
2022/11/04 10:35:04;;;;;;;4.38;1.90;;;13.00;79.40;;;;;;5100613;28;20515;-74
2022/11/04 10:37:30;;;;;;;4.38;2.40;;;13.10;79.30;;;;;;5080009;28;20024;-74
2022/11/04 10:40:27;;;;;;;4.38;2.85;;;13.10;79.20;;;;;;5095152;28;20387;-74
2022/11/04 10:42:56;;;;;;;4.97;2.90;;;13.20;79.00;;;;;;5098062;28;20032;-73
2022/11/04 10:45:29;;;;;;;4.40;2.95;;;13.20;79.00;;;;;;5092463;28;20028;-78
2022/11/04 10:48:01;;;;;;;4.18;2.85;;;13.20;79.00;;;;;;5091935;28;20022;-77
2022/11/04 10:50:38;;;;;;;2.00;1.70;;;13.30;78.90;;;;;;5104710;28;20031;-77
2022/11/04 10:53:11;;;;;;;4.38;2.78;;;13.40;78.70;;;;;;5093647;28;20074;-77
2022/11/04 10:55:44;;;;;;;5.18;2.75;;;13.40;78.50;;;;;;5104491;28;20031;-73
2022/11/04 10:58:42;;;;;;;4.53;3.08;;;13.60;78.60;;;;;;5103204;28;20027;-72
2022/11/04 11:01:28;;;;;;;8.02;2.92;;;14.00;77.80;;;;;;5077341;28;20475;-73
2022/11/04 11:03:55;;;;;;;4.10;2.72;;;14.50;77.00;;;;;;5085945;28;20052;-78
2022/11/04 11:06:30;;;;;;;4.88;3.63;;;14.80;76.00;;;;;;5088864;28;20105;-77
2022/11/04 11:09:00;;;;;;;5.47;3.58;;;14.90;75.00;;;;;;5074833;28;20124;-73
2022/11/04 11:11:38;;;;;;;17.85;3.60;;;14.80;74.60;;;;;;5089448;28;20054;-73
2022/11/04 11:14:03;;;;;;;2.47;1.98;;;14.70;75.00;;;;;;5090538;28;20491;-76
2022/11/04 11:16:30;;;;;;;5.05;2.88;;;14.50;75.40;;;;;;5091763;28;20040;-76
2022/11/04 11:19:16;;;;;;;2.22;1.92;;;14.50;75.80;;;;;;5090016;28;20490;-73
2022/11/04 11:21:47;;;;;;;3.47;2.03;;;14.50;75.80;;;;;;5088347;28;20020;-73
2022/11/04 11:24:34;;;;;;;6.77;2.30;;;14.30;75.60;;;;;;5089687;28;20671;-74
2022/11/04 11:27:10;;;;;;;3.42;2.47;;;14.30;76.20;;;;;;5089786;28;20040;-73
2022/11/04 11:29:40;;;;;;;3.85;2.83;;;14.30;76.40;;;;;;5090603;28;20086;-73
2022/11/04 11:32:26;;;;;;;4.10;3.17;;;14.20;76.10;;;;;;5089096;28;20032;-73
2022/11/04 11:34:52;;;;;;;5.90;2.53;;;14.20;75.90;;;;;;5083917;28;20464;-74
2022/11/04 11:37:23;;;;;;;2.92;2.58;;;14.10;76.20;;;;;;5081511;28;20040;-73
2022/11/04 11:39:49;;;;;;;4.03;3.08;;;14.10;76.30;;;;;;5080605;28;20402;-73
2022/11/04 11:42:18;;;;;;;3.08;2.10;;;14.10;76.30;;;;;;5087444;28;20098;-73
2022/11/04 11:44:48;;;;;;;6.47;2.85;;;14.20;76.20;;;;;;5091318;28;20115;-73
2022/11/04 11:47:21;;;;;;;6.15;2.20;;;14.40;76.00;;;;;;5091419;28;20024;-73
2022/11/04 11:50:03;;;;;;;2.92;2.40;;;14.50;75.60;;;;;;5101695;28;20035;-70
2022/11/04 11:52:31;;;;;;;5.07;3.55;;;14.70;75.40;;;;;;5094487;28;20084;-76
2022/11/04 11:55:31;;;;;;;5.03;3.05;;;14.90;75.20;;;;;;5079507;28;20034;-73
2022/11/04 11:58:26;;;;;;;5.00;2.72;;;15.60;74.40;;;;;;5092490;28;20028;-73
2022/11/04 12:01:14;;;;;;;4.35;2.78;;;16.40;71.70;;;;;;5083925;27;20036;-73
2022/11/04 12:03:44;;;;;;;6.20;3.13;;;16.80;71.20;;;;;;5082462;28;20036;-73
2022/11/04 12:06:35;;;;;;;4.97;2.92;;;17.30;70.30;;;;;;5091942;28;20036;-73
2022/11/04 12:09:24;;;;;;;3.05;2.50;;;17.70;68.80;;;;;;5086482;28;20035;-73
2022/11/04 12:11:55;;;;;;;3.58;2.63;;;18.30;68.70;;;;;;5084083;28;20044;-71
2022/11/04 12:14:35;;;;;;;3.80;2.33;;;19.00;66.30;;;;;;5086508;28;20034;-70
2022/11/04 12:17:17;;;;;;;2.83;2.28;;;18.70;65.40;;;;;;5087172;28;20331;-73
2022/11/04 12:19:52;;;;;;;;;;;18.10;66.70;;;;;;5089818;28;20447;-73
2022/11/04 12:22:46;;;;;;;4.13;2.42;;;17.50;67.00;;;;;;5090507;28;19908;-73
2022/11/04 12:25:21;;;;;;;6.65;2.33;;;16.80;68.80;;;;;;5103524;28;20027;-73
2022/11/04 12:28:05;;;;;;;4.38;2.25;;;16.50;70.00;;;;;;5097520;28;20047;-73
2022/11/04 12:30:39;;;;;;;4.85;2.63;;;16.30;70.50;;;;;;5102774;28;20020;-73
2022/11/04 12:33:16;;;;;;;3.33;2.55;;;16.30;70.60;;;;;;5090444;28;20016;-70
2022/11/04 12:36:02;;;;;;;9.20;2.78;;;16.20;70.90;;;;;;5088174;28;20067;-71
2022/11/04 12:38:39;;;;;;;4.70;2.83;;;16.10;70.40;;;;;;5088247;28;20031;-71
2022/11/04 12:41:22;;;;;;;3.53;2.45;;;16.00;70.40;;;;;;5090003;28;20255;-71
2022/11/04 12:44:12;;;;;;;3.58;2.80;;;15.90;71.00;;;;;;5091075;28;20024;-71
2022/11/04 12:47:14;;;;;;;5.78;4.00;;;15.70;71.00;;;;;;5091075;28;20020;-71
2022/11/04 12:50:03;;;;;;;3.63;2.38;;;15.50;71.00;;;;;;5087808;28;20378;-70
2022/11/04 12:53:01;;;;;;;5.35;2.80;;;15.30;71.50;;;;;;5105539;28;20035;-72
2022/11/04 12:55:30;;;;;;;5.18;2.58;;;15.30;72.00;;;;;;5041725;28;20056;-70
2022/11/04 12:58:27;;;;;;;2.20;1.98;;;15.30;72.30;;;;;;5108662;28;20060;-70
2022/11/04 13:01:09;;;;;;;3.50;2.38;;;15.30;72.10;;;;;;5098816;28;20021;-70
2022/11/04 13:03:53;;;;;;;3.05;2.35;;;15.20;72.30;;;;;;5100242;28;20024;-73
2022/11/04 13:06:32;;;;;;;5.10;2.88;;;15.20;72.50;;;;;;5106240;28;20055;-73
2022/11/04 13:09:01;;;;;;;7.07;2.97;;;15.20;72.40;;;;;;5085326;28;20044;-73
2022/11/04 13:11:55;;;;;;;10.68;3.40;;;15.10;72.30;;;;;;5100147;28;20046;-73
2022/11/04 13:14:29;;;;;;;4.07;2.67;;;15.00;72.50;;;;;;5088563;28;20470;-73
2022/11/04 13:16:59;;;;;;;3.90;2.67;;;15.00;72.80;;;;;;5098602;28;20044;-73
2022/11/04 13:19:29;;;;;;;3.85;2.53;;;15.10;72.80;;;;;;5095539;28;20028;-73
2022/11/04 13:21:57;;;;;;;3.63;2.47;;;15.10;72.40;;;;;;5098167;28;20024;-73
2022/11/04 13:24:30;;;;;;;2.65;2.40;;;15.30;72.40;;;;;;5094546;28;20020;-73
2022/11/04 13:27:03;;;;;;;4.25;2.80;;;15.40;72.30;;;;;;5092891;28;20020;-71
2022/11/04 13:29:31;;;;;;;;;;;15.50;72.00;;;;;;5095064;28;20047;-70
2022/11/04 13:32:03;;;;;;;3.33;2.35;;;15.50;71.90;;;;;;5093890;28;19943;-70
2022/11/04 13:34:34;;;;;;;3.30;2.63;;;15.40;72.10;;;;;;5093256;28;20034;-70
2022/11/04 13:37:51;;;;;;;5.53;3.17;;;15.40;72.00;;;;;;5095865;28;20084;-73
2022/11/04 13:40:28;;;;;;;4.10;2.70;;;15.40;72.30;;;;;;5101377;28;20272;-71
2022/11/04 13:43:36;;;;;;;5.07;2.83;;;15.40;72.50;;;;;;5085918;28;20066;-68
2022/11/04 13:45:51;;;;;;;3.95;2.08;;;15.50;72.40;;;;;;5089655;28;20034;-68
2022/11/04 13:48:24;;;;;;;7.07;2.83;;;15.60;72.20;;;;;;5092510;28;20063;-71
2022/11/04 13:50:59;;;;;;;4.45;2.53;;;15.70;71.70;;;;;;5091866;28;20364;-71